Time;durP1;ratioP1;P1;durP2;ratioP2;P2;SDS_P1;SDS_P2;PMS_P1;PMS_P2;Temp;Humidity;BMP_temperature;BMP_pressure;BME280_temperature;BME280_humidity;BME280_pressure;Samples;Min_cycle;Max_cycle;Signal;HPM_P1;HPM_P2
2022/10/07 00:02:20;;;;;;;;;;;14.50;89.10;;;;;;5075940;28;19939;-90
2022/10/07 00:04:46;;;;;;;;;;;14.50;89.10;;;;;;5075085;28;20074;-90
2022/10/07 00:07:13;;;;;;;;;;;14.50;89.30;;;;;;5075884;28;19945;-90
2022/10/07 00:09:39;;;;;;;;;;;14.50;89.50;;;;;;5074497;28;19967;-90
2022/10/07 00:12:05;;;;;;;;;;;14.40;89.50;;;;;;5075774;28;20270;-90
2022/10/07 00:14:31;;;;;;;;;;;14.40;89.60;;;;;;5074690;28;20385;-90
2022/10/07 00:16:56;;;;;;;;;;;14.40;89.50;;;;;;5074522;28;19944;-89
2022/10/07 00:19:22;;;;;;;;;;;14.40;89.40;;;;;;5074414;28;19944;-90
2022/10/07 00:21:47;;;;;;;;;;;14.40;89.30;;;;;;5075599;28;19936;-89
2022/10/07 00:24:14;;;;;;;;;;;14.30;89.50;;;;;;5074262;28;19939;-89
2022/10/07 00:26:40;;;;;;;;;;;14.20;89.40;;;;;;5075215;28;19967;-90
2022/10/07 00:29:06;;;;;;;;;;;14.20;89.50;;;;;;5074544;28;20317;-90
2022/10/07 00:31:33;;;;;;;;;;;14.10;90.00;;;;;;5075459;28;20040;-90
2022/10/07 00:33:59;;;;;;;;;;;14.20;90.20;;;;;;5074722;28;20039;-89
2022/10/07 00:36:26;;;;;;;;;;;14.10;90.20;;;;;;5073994;28;20054;-89
2022/10/07 00:38:55;;;;;;;;;;;14.10;90.10;;;;;;5074017;28;19947;-89
2022/10/07 00:41:22;;;;;;;;;;;14.10;89.80;;;;;;5075179;28;20049;-89
2022/10/07 00:43:48;;;;;;;;;;;14.20;89.50;;;;;;5073020;28;20001;-89
2022/10/07 00:46:28;;;;;;;;;;;14.10;89.40;;;;;;5075105;28;20362;-89
2022/10/07 00:48:55;;;;;;;;;;;14.00;89.40;;;;;;5075006;28;19955;-89
2022/10/07 00:51:21;;;;;;;;;;;14.00;89.80;;;;;;5074872;28;19963;-90
2022/10/07 00:53:48;;;;;;;;;;;14.00;90.20;;;;;;5074101;28;19947;-90
2022/10/07 00:56:15;;;;;;;;;;;13.90;90.20;;;;;;5074978;28;19941;-90
2022/10/07 00:58:41;;;;;;;;;;;14.00;90.30;;;;;;5074037;28;20693;-89
2022/10/07 01:01:07;;;;;;;;;;;14.00;90.40;;;;;;5074655;28;19954;-90
2022/10/07 01:03:34;;;;;;;;;;;13.90;90.20;;;;;;5074138;28;19939;-90
2022/10/07 01:06:01;;;;;;;;;;;13.90;90.20;;;;;;5073836;28;19985;-90
2022/10/07 01:08:26;;;;;;;;;;;13.90;90.30;;;;;;5074551;28;19967;-90
2022/10/07 01:10:52;;;;;;;;;;;13.90;90.30;;;;;;5074625;28;19944;-90
2022/10/07 01:13:27;;;;;;;;;;;13.90;90.40;;;;;;5073480;28;19939;-90
2022/10/07 01:16:06;;;;;;;;;;;13.90;90.40;;;;;;5074538;28;19934;-89
2022/10/07 01:18:48;;;;;;;;;;;13.90;90.40;;;;;;5073217;28;19956;-90
2022/10/07 01:21:39;;;;;;;;;;;13.90;90.30;;;;;;5074179;28;19947;-90
2022/10/07 01:24:08;;;;;;;;;;;13.90;90.10;;;;;;5071446;28;20049;-89
2022/10/07 01:26:54;;;;;;;;;;;13.90;90.00;;;;;;5074279;28;19942;-89
2022/10/07 01:29:29;;;;;;;;;;;13.90;89.80;;;;;;5073358;28;19972;-90
2022/10/07 01:32:06;;;;;;;;;;;13.90;89.50;;;;;;5073655;28;19943;-89
2022/10/07 01:34:33;;;;;;;;;;;13.90;89.10;;;;;;5074118;28;19944;-89
2022/10/07 01:37:00;;;;;;;;;;;13.90;89.10;;;;;;5074023;28;19952;-90
2022/10/07 01:39:29;;;;;;;;;;;13.90;89.20;;;;;;5074027;28;19935;-90
2022/10/07 01:41:55;;;;;;;;;;;13.90;89.00;;;;;;5073653;28;19941;-89
2022/10/07 01:44:21;;;;;;;;;;;13.80;88.70;;;;;;5073879;28;20071;-90
2022/10/07 01:46:47;;;;;;;;;;;13.80;88.70;;;;;;5072633;28;20053;-89
2022/10/07 01:49:12;;;;;;;;;;;13.80;88.80;;;;;;5074108;28;20049;-90
2022/10/07 01:51:40;;;;;;;;;;;13.80;88.70;;;;;;5073656;28;19961;-89
2022/10/07 01:54:28;;;;;;;;;;;13.90;88.60;;;;;;5072805;28;19953;-89
2022/10/07 01:57:07;;;;;;;;;;;13.90;88.60;;;;;;5073584;28;19954;-90
2022/10/07 01:59:51;;;;;;;;;;;13.90;88.60;;;;;;5073565;28;20403;-90
2022/10/07 02:02:26;;;;;;;;;;;13.80;88.70;;;;;;5072803;28;19962;-90
2022/10/07 02:05:08;;;;;;;;;;;13.70;88.80;;;;;;5073412;28;19983;-90
2022/10/07 02:07:42;;;;;;;;;;;13.70;88.70;;;;;;5073518;28;20397;-89
2022/10/07 02:10:22;;;;;;;;;;;13.70;88.70;;;;;;5072175;28;19970;-89
2022/10/07 02:12:56;;;;;;;;;;;13.80;88.60;;;;;;5072730;28;20476;-89
2022/10/07 02:15:45;;;;;;;;;;;13.70;88.50;;;;;;5073455;28;19943;-90
2022/10/07 02:18:14;;;;;;;;;;;13.70;88.60;;;;;;5069178;28;19947;-90
2022/10/07 02:20:40;;;;;;;;;;;13.70;88.60;;;;;;5073391;28;19935;-90
2022/10/07 02:23:07;;;;;;;;;;;13.60;88.50;;;;;;5072733;28;19948;-90
2022/10/07 02:25:35;;;;;;;;;;;13.70;88.50;;;;;;5073354;28;19937;-90
2022/10/07 02:28:04;;;;;;;;;;;13.80;88.10;;;;;;5072309;28;19942;-89
2022/10/07 02:30:30;;;;;;;;;;;13.80;88.00;;;;;;5073270;28;19937;-90
2022/10/07 02:32:57;;;;;;;;;;;13.80;88.00;;;;;;5072648;28;20408;-90
2022/10/07 02:35:27;;;;;;;;;;;13.70;88.00;;;;;;5073233;28;20317;-89
2022/10/07 02:37:55;;;;;;;;;;;13.70;87.80;;;;;;5073205;28;20023;-89
2022/10/07 02:40:23;;;;;;;;;;;13.60;87.80;;;;;;5073168;28;20042;-90
2022/10/07 02:42:58;;;;;;;;;;;13.50;87.90;;;;;;5071021;28;19995;-90
2022/10/07 02:45:28;;;;;;;;;;;13.50;88.00;;;;;;5073112;28;19939;-90
2022/10/07 02:47:59;;;;;;;;;;;13.50;88.40;;;;;;5073067;28;19948;-90
2022/10/07 02:50:26;;;;;;;;;;;13.40;88.10;;;;;;5073181;28;19961;-90
2022/10/07 02:52:54;;;;;;;;;;;13.40;88.40;;;;;;5071977;28;19971;-89
2022/10/07 02:55:21;;;;;;;;;;;13.40;88.30;;;;;;5073028;28;19946;-90
2022/10/07 02:57:49;;;;;;;;;;;13.40;88.40;;;;;;5072315;28;19950;-89
2022/10/07 03:00:14;;;;;;;;;;;13.40;88.40;;;;;;5073008;28;19942;-90
2022/10/07 03:02:51;;;;;;;;;;;13.40;88.70;;;;;;5072018;28;19951;-90
2022/10/07 03:05:18;;;;;;;;;;;13.40;88.70;;;;;;5072645;28;19982;-89
2022/10/07 03:07:45;;;;;;;;;;;13.40;88.80;;;;;;5072881;28;19946;-89
2022/10/07 03:10:10;;;;;;;;;;;13.40;88.60;;;;;;5072799;28;20025;-89
2022/10/07 03:12:36;;;;;;;;;;;13.40;88.50;;;;;;5072058;28;20460;-89
2022/10/07 03:15:02;;;;;;;;;;;13.40;88.50;;;;;;5072364;28;19953;-90
2022/10/07 03:17:27;;;;;;;;;;;13.40;88.50;;;;;;5073133;28;19971;-89
2022/10/07 03:19:53;;;;;;;;;;;13.40;88.40;;;;;;5072732;28;19940;-90
2022/10/07 03:22:19;;;;;;;;;;;13.30;88.30;;;;;;5071984;28;19942;-89
2022/10/07 03:24:45;;;;;;;;;;;13.30;88.20;;;;;;5071508;28;20044;-90
2022/10/07 03:27:10;;;;;;;;;;;13.30;88.10;;;;;;5072724;28;20364;-90
2022/10/07 03:29:36;;;;;;;;;;;13.20;88.30;;;;;;5072166;28;20023;-89
2022/10/07 03:32:02;;;;;;;;;;;13.20;88.50;;;;;;5076596;28;19935;-89
2022/10/07 03:34:27;;;;;;;;;;;13.20;88.50;;;;;;5075951;28;20354;-90
2022/10/07 03:36:54;;;;;;;;;;;13.30;88.50;;;;;;5076397;28;20047;-89
2022/10/07 03:39:19;;;;;;;;;;;13.30;88.40;;;;;;5075096;28;19943;-89
2022/10/07 03:41:47;;;;;;;;;;;13.30;88.20;;;;;;5076331;28;20370;-89
2022/10/07 03:44:13;;;;;;;;;;;13.30;87.80;;;;;;5074253;28;19949;-90
2022/10/07 03:46:39;;;;;;;;;;;13.40;87.80;;;;;;5076227;28;20352;-89
2022/10/07 03:49:04;;;;;;;;;;;13.40;87.40;;;;;;5076108;28;19959;-90
2022/10/07 03:51:30;;;;;;;;;;;13.40;87.40;;;;;;5075993;28;19956;-90
2022/10/07 03:53:56;;;;;;;;;;;13.40;87.30;;;;;;5075247;28;20316;-89
2022/10/07 03:56:22;;;;;;;;;;;13.40;87.30;;;;;;5075978;28;20396;-90
2022/10/07 03:58:48;;;;;;;;;;;13.40;87.20;;;;;;5075288;28;20324;-90
2022/10/07 04:01:16;;;;;;;;;;;13.40;87.30;;;;;;5066951;28;19947;-90
2022/10/07 04:03:42;;;;;;;;;;;13.30;87.30;;;;;;5055884;28;20418;-89
2022/10/07 04:06:08;;;;;;;;;;;13.20;87.60;;;;;;5055723;28;19975;-89
2022/10/07 04:08:33;;;;;;;;;;;13.20;87.50;;;;;;5072675;28;19983;-89
2022/10/07 04:10:59;;;;;;;;;;;13.00;87.60;;;;;;5076036;28;19974;-90
2022/10/07 04:13:25;;;;;;;;;;;12.90;87.90;;;;;;5074891;28;19943;-90
2022/10/07 04:15:51;;;;;;;;;;;12.90;88.50;;;;;;5075901;28;20316;-89
2022/10/07 04:18:17;;;;;;;;;;;12.80;88.90;;;;;;5075635;28;20400;-90
2022/10/07 04:20:42;;;;;;;;;;;12.80;88.80;;;;;;5055953;28;19952;-89
2022/10/07 04:23:08;;;;;;;;;;;12.90;88.90;;;;;;5060243;28;20402;-89
2022/10/07 04:25:33;;;;;;;;;;;12.90;88.80;;;;;;5075496;28;19944;-90
2022/10/07 04:28:00;;;;;;;;;;;12.90;88.70;;;;;;5073596;28;19948;-90
2022/10/07 04:30:27;;;;;;;;;;;12.70;88.70;;;;;;5074444;28;20013;-89
2022/10/07 04:32:52;;;;;;;;;;;12.70;88.90;;;;;;5075436;28;19963;-90
2022/10/07 04:35:19;;;;;;;;;;;12.70;88.80;;;;;;5075315;28;19943;-89
2022/10/07 04:37:46;;;;;;;;;;;12.80;88.80;;;;;;5074585;28;20000;-90
2022/10/07 04:40:12;;;;;;;;;;;12.80;88.60;;;;;;5073788;28;20386;-90
2022/10/07 04:45:22;;;;;;;;;;;12.80;88.90;;;;;;5073499;28;19999;-90
2022/10/07 04:47:47;;;;;;;;;;;12.80;89.00;;;;;;5073799;28;20437;-89
2022/10/07 04:50:13;;;;;;;;;;;12.80;88.80;;;;;;5074917;28;19956;-90
2022/10/07 04:52:39;;;;;;;;;;;12.80;88.60;;;;;;5074824;28;20409;-89
2022/10/07 04:55:05;;;;;;;;;;;12.80;88.50;;;;;;5064498;28;20036;-89
2022/10/07 04:57:31;;;;;;;;;;;12.90;88.50;;;;;;5070660;28;19981;-89
2022/10/07 04:59:57;;;;;;;;;;;12.90;88.30;;;;;;5074223;28;19949;-90
2022/10/07 05:02:22;;;;;;;;;;;12.90;88.50;;;;;;5074756;28;19941;-89
2022/10/07 05:04:48;;;;;;;;;;;13.00;88.10;;;;;;5072630;28;19981;-90
2022/10/07 05:07:13;;;;;;;;;;;13.10;88.30;;;;;;5073137;28;19956;-90
2022/10/07 05:09:40;;;;;;;;;;;13.10;87.80;;;;;;5056395;28;19965;-89
2022/10/07 05:12:05;;;;;;;;;;;13.00;87.80;;;;;;5054603;28;19938;-89
2022/10/07 05:14:32;;;;;;;;;;;13.00;87.80;;;;;;5070194;28;19948;-89
2022/10/07 05:16:58;;;;;;;;;;;12.90;87.90;;;;;;5074495;28;20388;-90
2022/10/07 05:19:24;;;;;;;;;;;12.90;87.90;;;;;;5074509;28;19951;-90
2022/10/07 05:21:50;;;;;;;;;;;12.90;87.70;;;;;;5073102;28;19949;-89
2022/10/07 05:24:16;;;;;;;;;;;12.90;87.80;;;;;;5073777;28;19935;-89
2022/10/07 05:26:41;;;;;;;;;;;12.90;87.80;;;;;;5054298;28;20299;-90
2022/10/07 05:29:07;;;;;;;;;;;12.90;87.80;;;;;;5058299;28;19969;-89
2022/10/07 05:31:33;;;;;;;;;;;12.80;87.80;;;;;;5072344;28;20039;-90
2022/10/07 05:33:59;;;;;;;;;;;12.80;88.30;;;;;;5073191;28;19987;-89
2022/10/07 05:36:25;;;;;;;;;;;12.80;88.30;;;;;;5077780;28;19941;-90
2022/10/07 05:38:56;;;;;;;;;;;12.80;88.50;;;;;;5080259;28;20010;-89
2022/10/07 05:41:22;;;;;;;;;;;12.80;88.40;;;;;;5072865;28;19993;-90
2022/10/07 05:43:48;;;;;;;;;;;12.80;88.40;;;;;;5072680;28;20377;-90
2022/10/07 05:46:14;;;;;;;;;;;12.90;88.30;;;;;;5069914;28;19950;-89
2022/10/07 05:48:40;;;;;;;;;;;12.80;88.40;;;;;;5066598;28;19994;-89
2022/10/07 05:51:07;;;;;;;;;;;12.80;88.10;;;;;;5072883;28;20001;-90
2022/10/07 05:53:33;;;;;;;;;;;12.70;88.50;;;;;;5073233;28;19945;-89
2022/10/07 05:56:03;;;;;;;;;;;12.80;88.60;;;;;;5072683;28;19939;-90
2022/10/07 05:58:28;;;;;;;;;;;12.80;88.70;;;;;;5071643;28;19995;-89
2022/10/07 06:00:55;;;;;;;;;;;12.90;88.70;;;;;;5071925;28;20655;-90
2022/10/07 06:03:21;;;;;;;;;;;13.00;88.60;;;;;;5068730;28;20072;-89
2022/10/07 06:05:49;;;;;;;;;;;13.00;88.50;;;;;;5078962;22;19979;-90
2022/10/07 06:08:15;;;;;;;;;;;13.10;88.40;;;;;;5070567;28;19998;-89
2022/10/07 06:13:25;;;;;;;;;;;13.20;88.20;;;;;;5072491;28;19960;-89
2022/10/07 06:15:50;;;;;;;;;;;13.30;88.00;;;;;;5072748;28;19942;-89
2022/10/07 06:18:16;;;;;;;;;;;13.40;87.80;;;;;;5070839;28;19950;-89
2022/10/07 06:20:41;;;;;;;;;;;13.60;87.60;;;;;;5071709;28;19943;-89
2022/10/07 06:23:07;;;;;;;;;;;13.80;86.70;;;;;;5069388;28;19956;-90
2022/10/07 06:25:33;;;;;;;;;;;14.10;86.00;;;;;;5071632;28;20367;-91
2022/10/07 06:27:59;;;;;;;;;;;14.20;85.70;;;;;;5071839;28;20515;-90
2022/10/07 06:30:25;;;;;;;;;;;14.40;85.10;;;;;;5070721;28;19974;-90
2022/10/07 06:32:51;;;;;;;;;;;14.40;85.30;;;;;;5067717;28;19941;-89
2022/10/07 06:35:17;;;;;;;;;;;14.40;85.40;;;;;;5070505;28;19942;-90
2022/10/07 06:37:42;;;;;;;;;;;14.40;85.50;;;;;;5072200;28;19989;-90
2022/10/07 06:40:08;;;;;;;;;;;14.50;85.10;;;;;;5070532;28;19952;-90
2022/10/07 06:42:33;;;;;;;;;;;14.60;84.90;;;;;;5072953;28;20354;-89
2022/10/07 06:44:59;;;;;;;;;;;14.60;84.70;;;;;;5073362;28;20021;-89
2022/10/07 06:47:24;;;;;;;;;;;14.60;84.50;;;;;;5070677;28;20034;-90
2022/10/07 06:49:50;;;;;;;;;;;14.80;84.50;;;;;;5082537;28;20309;-89
2022/10/07 06:52:16;;;;;;;;;;;14.80;84.20;;;;;;5071962;28;19942;-89
2022/10/07 06:54:41;;;;;;;;;;;14.80;84.00;;;;;;5077041;28;19949;-89
2022/10/07 06:57:07;;;;;;;;;;;14.90;83.70;;;;;;5080196;28;20091;-89
2022/10/07 07:00:42;;;;;;;;;;;15.10;83.50;;;;;;5090631;27;19952;-90
2022/10/07 07:03:09;;;;;;;;;;;15.20;83.80;;;;;;5102772;28;19945;-89
2022/10/07 07:05:36;;;;;;;;;;;15.30;84.10;;;;;;5072352;28;19942;-89
2022/10/07 07:08:01;;;;;;;;;;;15.40;84.20;;;;;;5072715;28;19946;-89
2022/10/07 07:10:27;;;;;;;;;;;15.50;84.20;;;;;;5072975;28;20354;-89
2022/10/07 07:12:53;;;;;;;;;;;15.60;84.40;;;;;;5070160;28;20442;-91
2022/10/07 07:15:18;;;;;;;;;;;15.70;84.40;;;;;;5071450;28;20296;-90
2022/10/07 07:17:44;;;;;;;;;;;15.80;84.30;;;;;;5070074;28;20372;-90
2022/10/07 07:20:10;;;;;;;;;;;16.00;84.30;;;;;;5069638;28;20454;-90
2022/10/07 07:22:36;;;;;;;;;;;16.10;84.40;;;;;;5076900;28;19952;-89
2022/10/07 07:25:02;;;;;;;;;;;16.30;84.10;;;;;;5076146;28;20333;-90
2022/10/07 07:27:28;;;;;;;;;;;16.30;83.90;;;;;;5069696;28;19994;-90
2022/10/07 07:29:53;;;;;;;;;;;16.40;83.90;;;;;;5074308;28;19994;-90
2022/10/07 07:32:19;;;;;;;;;;;16.60;84.10;;;;;;5070988;28;19949;-90
2022/10/07 07:34:44;;;;;;;;;;;16.70;83.70;;;;;;5070332;28;19946;-89
2022/10/07 07:37:10;;;;;;;;;;;16.90;82.20;;;;;;5071111;28;19948;-90
2022/10/07 07:39:36;;;;;;;;;;;17.10;81.20;;;;;;5072367;28;20017;-90
2022/10/07 07:42:02;;;;;;;;;;;17.30;79.50;;;;;;5063280;28;20046;-89
2022/10/07 07:44:29;;;;;;;;;;;17.50;78.70;;;;;;5074959;28;20370;-90
2022/10/07 07:46:55;;;;;;;;;;;17.80;76.60;;;;;;5075617;28;19954;-89
2022/10/07 07:49:21;;;;;;;;;;;18.00;76.70;;;;;;5071940;28;19944;-89
2022/10/07 07:51:46;;;;;;;;;;;18.20;75.40;;;;;;5068419;28;19989;-89
2022/10/07 07:54:12;;;;;;;;;;;18.40;74.50;;;;;;5066225;28;20647;-90
2022/10/07 07:56:38;;;;;;;;;;;18.50;74.30;;;;;;5065942;28;19984;-90
2022/10/07 07:59:04;;;;;;;;;;;18.70;72.90;;;;;;5066597;28;19980;-90
2022/10/07 08:01:30;;;;;;;;;;;18.80;72.60;;;;;;5066191;28;19944;-89
2022/10/07 08:03:56;;;;;;;;;;;18.90;72.20;;;;;;5065865;28;20188;-89
2022/10/07 08:06:21;;;;;;;;;;;19.10;71.80;;;;;;5067301;28;20025;-90
2022/10/07 08:08:47;;;;;;;;;;;19.20;71.00;;;;;;5067324;28;19939;-90
2022/10/07 08:11:17;;;;;;;;;;;19.30;71.30;;;;;;5058898;28;19946;-90
2022/10/07 08:13:43;;;;;;;;;;;19.40;70.40;;;;;;5052577;28;20001;-90
2022/10/07 08:16:11;;;;;;;;;;;19.50;69.60;;;;;;5049890;28;19956;-90
2022/10/07 08:18:40;;;;;;;;;;;19.60;70.10;;;;;;5053147;28;19963;-91
2022/10/07 08:21:06;;;;;;;;;;;19.70;68.50;;;;;;5051919;28;19982;-90
2022/10/07 08:23:32;;;;;;;;;;;19.90;65.70;;;;;;5052904;28;19952;-89
2022/10/07 08:25:58;;;;;;;;;;;20.10;65.60;;;;;;5053280;28;19947;-90
2022/10/07 08:28:24;;;;;;;;;;;20.20;65.40;;;;;;5056681;28;19952;-90
2022/10/07 08:30:50;;;;;;;;;;;20.30;64.80;;;;;;5054119;28;19942;-89
2022/10/07 08:33:16;;;;;;;;;;;20.50;63.70;;;;;;5052834;28;19944;-91
2022/10/07 08:35:42;;;;;;;;;;;20.60;64.20;;;;;;5053124;28;19951;-90
2022/10/07 08:38:08;;;;;;;;;;;20.60;63.60;;;;;;5053827;28;19945;-90
2022/10/07 08:40:34;;;;;;;;;;;20.70;62.80;;;;;;5050862;28;20157;-90
2022/10/07 08:43:00;;;;;;;;;;;20.80;63.70;;;;;;5053299;28;19982;-91
2022/10/07 08:45:30;;;;;;;;;;;20.80;63.40;;;;;;5052361;28;19989;-90
2022/10/07 08:47:58;;;;;;;;;;;20.80;63.00;;;;;;5052586;28;19946;-90
2022/10/07 08:50:29;;;;;;;;;;;20.90;61.70;;;;;;5052555;28;19943;-90
2022/10/07 08:52:55;;;;;;;;;;;20.90;59.90;;;;;;5057540;28;19939;-89
2022/10/07 08:55:30;;;;;;;;;;;21.00;60.70;;;;;;5051822;28;19956;-90
2022/10/07 08:57:57;;;;;;;;;;;21.10;61.00;;;;;;5050223;28;19969;-90
2022/10/07 09:00:23;;;;;;;;;;;21.20;59.00;;;;;;5052979;28;19967;-89
2022/10/07 09:03:05;;;;;;;;;;;21.30;58.80;;;;;;5050097;28;19942;-89
2022/10/07 09:05:33;;;;;;;;;;;21.30;60.20;;;;;;5042946;28;20024;-89
2022/10/07 09:08:01;;;;;;;;;;;21.30;60.40;;;;;;5051509;28;19976;-89
2022/10/07 09:10:33;;;;;;;;;;;21.40;60.00;;;;;;5054095;28;19992;-89
2022/10/07 09:13:11;;;;;;;;;;;21.50;60.60;;;;;;5051911;28;20053;-89
2022/10/07 09:15:37;;;;;;;;;;;21.50;59.80;;;;;;5053538;28;20006;-90
2022/10/07 09:18:06;;;;;;;;;;;21.60;59.90;;;;;;5053622;28;20402;-90
2022/10/07 09:26:59;;;;;;;;;;;21.70;58.80;;;;;;5051343;28;19951;-90
2022/10/07 09:29:26;;;;;;;;;;;21.80;58.30;;;;;;5052388;28;20102;-89
2022/10/07 09:31:52;;;;;;;;;;;21.90;58.70;;;;;;5052387;28;19991;-89
2022/10/07 09:34:23;;;;;;;;;;;22.00;57.90;;;;;;5052301;28;20010;-90
2022/10/07 09:37:07;;;;;;;;;;;22.10;59.20;;;;;;5053792;28;19946;-90
2022/10/07 09:39:32;;;;;;;;;;;22.10;58.30;;;;;;5053889;28;19972;-91
2022/10/07 09:41:58;;;;;;;;;;;22.20;57.20;;;;;;5048663;28;19947;-89
2022/10/07 09:44:25;;;;;;;;;;;22.30;57.00;;;;;;5053507;28;20108;-90
2022/10/07 09:46:52;;;;;;;;;;;22.30;57.10;;;;;;5052119;28;19946;-90
2022/10/07 09:49:26;;;;;;;;;;;22.40;56.60;;;;;;5051279;28;19946;-89
2022/10/07 09:51:59;;;;;;;;;;;22.50;57.80;;;;;;5052774;28;20498;-90
2022/10/07 09:54:25;;;;;;;;;;;22.60;56.40;;;;;;5049986;28;19951;-89
2022/10/07 09:56:53;;;;;;;;;;;22.70;56.50;;;;;;5051653;28;20396;-91
2022/10/07 09:59:20;;;;;;;;;;;22.70;56.50;;;;;;5050785;28;19978;-90
2022/10/07 10:02:04;;;;;;;;;;;22.80;55.90;;;;;;5051233;28;19943;-89
2022/10/07 10:04:34;;;;;;;;;;;22.80;54.40;;;;;;5062718;28;19944;-89
2022/10/07 10:07:02;;;;;;;;;;;22.90;57.40;;;;;;5052907;28;20035;-89
2022/10/07 10:09:28;;;;;;;;;;;23.00;54.80;;;;;;5053553;28;19969;-90
2022/10/07 10:12:13;;;;;;;;;;;23.10;54.20;;;;;;5051748;28;19983;-89
2022/10/07 10:14:53;;;;;;;;;;;23.20;54.90;;;;;;5035868;28;19951;-89
2022/10/07 10:17:29;;;;;;;;;;;23.30;55.20;;;;;;5033602;28;20482;-90
2022/10/07 10:20:15;;;;;;;;;;;23.40;55.40;;;;;;5033485;28;19959;-89
2022/10/07 10:22:41;;;;;;;;;;;23.50;54.50;;;;;;5052923;28;19951;-90
2022/10/07 10:27:59;;;;;;;;;;;23.60;52.20;;;;;;5042114;28;19951;-90
2022/10/07 10:30:25;;;;;;;;;;;23.70;52.00;;;;;;5053344;28;20347;-90
2022/10/07 10:32:50;;;;;;;;;;;23.70;52.20;;;;;;5053322;28;19935;-90
2022/10/07 10:35:29;;;;;;;;;;;23.80;52.20;;;;;;5053163;28;20039;-90
2022/10/07 10:37:58;;;;;;;;;;;23.90;52.70;;;;;;5051303;28;19949;-90
2022/10/07 10:40:34;;;;;;;;;;;24.10;52.90;;;;;;5051142;28;19969;-90
2022/10/07 10:42:59;;;;;;;;;;;24.20;52.50;;;;;;5048140;28;19953;-91
2022/10/07 10:45:28;;;;;;;;;;;24.30;52.10;;;;;;5053131;28;19936;-90
2022/10/07 10:48:03;;;;;;;;;;;24.40;52.80;;;;;;5053147;28;19947;-90
2022/10/07 10:50:32;;;;;;;;;;;24.60;52.80;;;;;;5052907;28;19942;-90
2022/10/07 10:53:16;;;;;;;;;;;24.60;49.00;;;;;;5052357;28;19943;-90
2022/10/07 10:55:41;;;;;;;;;;;24.60;49.50;;;;;;5052327;28;20310;-89
2022/10/07 10:58:09;;;;;;;;;;;24.80;51.60;;;;;;5053334;28;19946;-90
2022/10/07 11:00:51;;;;;;;;;;;25.00;52.30;;;;;;5052728;28;19978;-90
2022/10/07 11:03:38;;;;;;;;;;;25.20;52.00;;;;;;5050409;28;19943;-90
2022/10/07 11:06:06;;;;;;;;;;;25.40;50.60;;;;;;5051423;28;19998;-90
2022/10/07 11:08:33;;;;;;;;;;;25.70;49.50;;;;;;5050682;28;20312;-90
2022/10/07 11:11:02;;;;;;;;;;;25.80;49.80;;;;;;5050381;28;20363;-90
2022/10/07 11:13:37;;;;;;;;;;;26.00;49.50;;;;;;5054881;28;19952;-90
2022/10/07 11:16:05;;;;;;;;;;;26.20;46.50;;;;;;5060258;28;19994;-90
2022/10/07 11:18:36;;;;;;;;;;;26.30;45.90;;;;;;5052277;28;19957;-90
2022/10/07 11:21:06;;;;;;;;;;;26.50;47.60;;;;;;5060669;28;20398;-90
2022/10/07 11:23:40;;;;;;;;;;;26.70;46.70;;;;;;5049773;28;19958;-90
2022/10/07 11:26:12;;;;;;;;;;;26.90;44.80;;;;;;5048778;28;20036;-89
2022/10/07 11:28:40;;;;;;;;;;;26.90;43.60;;;;;;5048387;28;19960;-90
2022/10/07 11:31:12;;;;;;;;;;;26.90;44.50;;;;;;5050295;28;19966;-89
2022/10/07 11:33:45;;;;;;;;;;;26.90;43.10;;;;;;5051042;28;20038;-90
2022/10/07 11:36:20;;;;;;;;;;;27.00;44.80;;;;;;5048856;28;19982;-90
2022/10/07 11:38:47;;;;;;;;;;;27.20;45.30;;;;;;5050417;28;20004;-90
2022/10/07 11:41:28;;;;;;;;;;;27.60;45.10;;;;;;5050041;28;19997;-90
2022/10/07 11:43:57;;;;;;;;;;;27.80;41.90;;;;;;5048951;28;19953;-90
2022/10/07 11:46:33;;;;;;;;;;;28.10;42.40;;;;;;5051593;28;19977;-90
2022/10/07 11:48:59;;;;;;;;;;;28.30;42.50;;;;;;5053255;28;20335;-90
2022/10/07 11:51:34;;;;;;;;;;;28.50;42.20;;;;;;5051192;28;20001;-91
2022/10/07 11:54:01;;;;;;;;;;;28.70;41.50;;;;;;5055056;28;19944;-90
2022/10/07 11:56:35;;;;;;;;;;;28.80;41.30;;;;;;5051144;28;20033;-90
2022/10/07 11:59:03;;;;;;;;;;;29.00;40.50;;;;;;5054934;28;20021;-90
2022/10/07 12:01:30;;;;;;;;;;;29.30;40.20;;;;;;5052820;28;20469;-90
2022/10/07 12:04:14;;;;;;;;;;;29.90;38.80;;;;;;5053544;28;19947;-90
2022/10/07 12:07:01;;;;;;;;;;;30.00;39.40;;;;;;5053486;28;20427;-90
2022/10/07 12:09:45;;;;;;;;;;;30.40;37.70;;;;;;5052646;28;20414;-90
2022/10/07 12:12:13;;;;;;;;;;;31.30;36.80;;;;;;5052697;28;19942;-90
2022/10/07 12:14:41;;;;;;;;;;;32.40;34.80;;;;;;5053697;28;19990;-90
2022/10/07 12:17:18;;;;;;;;;;;33.00;34.70;;;;;;5059087;28;19942;-90
2022/10/07 12:19:43;;;;;;;;;;;32.70;33.90;;;;;;5053555;28;19957;-90
2022/10/07 12:22:09;;;;;;;;;;;32.60;33.60;;;;;;5058470;28;20400;-90
2022/10/07 12:24:35;;;;;;;;;;;32.30;35.00;;;;;;5059491;28;20035;-90
2022/10/07 12:27:05;;;;;;;;;;;32.60;33.10;;;;;;5060029;28;20383;-90
2022/10/07 12:29:47;;;;;;;;;;;32.40;33.30;;;;;;5053184;28;19948;-90
2022/10/07 12:32:31;;;;;;;;;;;33.00;32.90;;;;;;5054880;28;19953;-90
2022/10/07 12:35:17;;;;;;;;;;;33.90;30.60;;;;;;5055278;28;19953;-90
2022/10/07 12:37:44;;;;;;;;;;;34.80;29.40;;;;;;5046642;28;19943;-91
2022/10/07 12:40:15;;;;;;;;;;;35.60;28.40;;;;;;5052224;28;20436;-90
2022/10/07 12:42:46;;;;;;;;;;;36.20;27.00;;;;;;5050465;28;19948;-91
2022/10/07 12:45:13;;;;;;;;;;;36.80;26.80;;;;;;5068237;28;20396;-91
2022/10/07 12:47:40;;;;;;;;;;;36.60;27.00;;;;;;5053282;28;19950;-91
2022/10/07 12:50:13;;;;;;;;;;;37.10;26.50;;;;;;5050714;28;19961;-91
2022/10/07 12:52:50;;;;;;;;;;;37.40;26.20;;;;;;5050762;28;20466;-90
2022/10/07 12:55:19;;;;;;;;;;;37.60;26.20;;;;;;5052242;28;19958;-91
2022/10/07 12:57:50;;;;;;;;;;;36.60;26.40;;;;;;5054668;28;20031;-90
2022/10/07 13:00:17;;;;;;;;;;;36.60;27.50;;;;;;5053195;28;19974;-91
2022/10/07 13:02:45;;;;;;;;;;;36.50;28.00;;;;;;5052260;28;19952;-90
2022/10/07 13:05:23;;;;;;;;;;;35.90;27.70;;;;;;5054452;28;19966;-90
2022/10/07 13:07:59;;;;;;;;;;;35.40;28.80;;;;;;5052601;28;19944;-91
2022/10/07 13:10:36;;;;;;;;;;;35.80;28.20;;;;;;5048817;28;20000;-90
2022/10/07 13:13:06;;;;;;;;;;;36.00;27.50;;;;;;5053791;28;20032;-90
2022/10/07 13:15:46;;;;;;;;;;;36.40;26.90;;;;;;5053894;28;19994;-91
2022/10/07 13:18:15;;;;;;;;;;;36.70;27.30;;;;;;5049123;28;19963;-90
2022/10/07 13:21:03;;;;;;;;;;;35.80;28.20;;;;;;5050971;28;19965;-90
2022/10/07 13:23:30;;;;;;;;;;;35.50;29.20;;;;;;5049972;28;19940;-91
2022/10/07 13:25:57;;;;;;;;;;;35.60;28.90;;;;;;5055553;28;19958;-91
2022/10/07 13:28:25;;;;;;;;;;;35.90;27.80;;;;;;5052487;28;19948;-91
2022/10/07 13:30:51;;;;;;;;;;;37.10;26.20;;;;;;5051485;28;19984;-91
2022/10/07 13:33:35;;;;;;;;;;;38.10;25.40;;;;;;5033422;28;19940;-91
2022/10/07 13:36:05;;;;;;;;;;;38.50;24.70;;;;;;5047943;28;19937;-91
2022/10/07 13:38:31;;;;;;;;;;;38.40;24.70;;;;;;5046275;28;19957;-91
2022/10/07 13:41:00;;;;;;;;;;;38.80;23.70;;;;;;5053978;28;19945;-90
2022/10/07 13:43:28;;;;;;;;;;;39.40;23.00;;;;;;5052627;28;20010;-91
2022/10/07 13:45:53;;;;;;;;;;;39.70;22.20;;;;;;5053721;28;19944;-90
2022/10/07 13:48:24;;;;;;;;;;;39.60;22.60;;;;;;5053479;28;19942;-91
2022/10/07 13:50:50;;;;;;;;;;;39.50;23.00;;;;;;5050567;28;20476;-91
2022/10/07 13:53:20;;;;;;;;;;;39.80;22.50;;;;;;5054758;28;19954;-91
2022/10/07 13:55:46;;;;;;;;;;;39.30;23.30;;;;;;5056626;28;20329;-91
2022/10/07 13:58:12;;;;;;;;;;;40.00;21.90;;;;;;5056303;28;20417;-90
2022/10/07 14:00:43;;;;;;;;;;;40.20;21.60;;;;;;5060497;28;19983;-90
2022/10/07 14:03:12;;;;;;;;;;;40.00;22.00;;;;;;5060161;28;19978;-91
2022/10/07 14:05:45;;;;;;;;;;;39.40;22.60;;;;;;5056344;28;19962;-91
2022/10/07 14:08:15;;;;;;;;;;;38.60;23.60;;;;;;5051019;28;20532;-91
2022/10/07 14:10:51;;;;;;;;;;;38.40;24.60;;;;;;5062397;28;19945;-91
2022/10/07 14:13:17;;;;;;;;;;;37.60;24.90;;;;;;5055816;28;19998;-90
2022/10/07 14:15:48;;;;;;;;;;;36.70;25.40;;;;;;5050158;28;20893;-90
2022/10/07 14:18:15;;;;;;;;;;;36.40;25.80;;;;;;5057352;28;19940;-91
2022/10/07 14:20:52;;;;;;;;;;;35.60;26.50;;;;;;5050612;28;19959;-90
2022/10/07 14:23:27;;;;;;;;;;;34.90;27.10;;;;;;5049468;28;19949;-90
2022/10/07 14:25:54;;;;;;;;;;;34.80;28.10;;;;;;5063294;28;19986;-90
2022/10/07 14:28:22;;;;;;;;;;;35.20;27.90;;;;;;5055478;28;20018;-90
2022/10/07 14:37:00;;;;;;;;;;;35.60;26.50;;;;;;5054488;28;19994;-90
2022/10/07 14:39:33;;;;;;;;;;;35.60;26.30;;;;;;5052362;28;19962;-91
2022/10/07 14:41:59;;;;;;;;;;;35.00;27.00;;;;;;5053188;28;19942;-91
2022/10/07 14:44:25;;;;;;;;;;;34.50;28.00;;;;;;5050538;28;20180;-90
2022/10/07 14:47:01;;;;;;;;;;;35.10;27.40;;;;;;5049718;28;19942;-90
2022/10/07 14:49:27;;;;;;;;;;;35.60;27.70;;;;;;5050365;28;19954;-91